createdAt,value
2017-06-22T00:00:22.333Z,5.47
2017-06-22T00:02:50.631Z,5.40
2017-06-22T00:05:18.944Z,5.43
2017-06-22T00:07:47.273Z,5.23
2017-06-22T00:10:15.565Z,5.23
2017-06-22T00:12:43.874Z,5.77
2017-06-22T00:15:12.209Z,6.07
2017-06-22T00:17:40.595Z,5.47
2017-06-22T00:20:08.921Z,4.80
2017-06-22T00:22:37.205Z,5.60
2017-06-22T00:25:05.575Z,7.77
2017-06-22T00:27:33.877Z,5.50
2017-06-22T00:30:02.273Z,5.90
2017-06-22T00:32:30.578Z,7.33
2017-06-22T00:34:58.933Z,6.60
2017-06-22T00:37:27.263Z,5.10
2017-06-22T00:39:55.557Z,4.67
2017-06-22T00:42:23.874Z,5.87
2017-06-22T00:44:52.165Z,5.57
2017-06-22T00:47:20.489Z,6.13
2017-06-22T00:49:48.782Z,4.90
2017-06-22T00:52:17.110Z,6.20
2017-06-22T00:54:46.165Z,5.27
2017-06-22T00:57:14.486Z,6.20
2017-06-22T00:59:43.548Z,9.03
2017-06-22T01:02:11.878Z,6.13
2017-06-22T01:04:40.205Z,7.30
2017-06-22T01:07:09.265Z,5.90
2017-06-22T01:09:37.589Z,6.20
2017-06-22T01:12:05.878Z,6.23
2017-06-22T01:14:34.957Z,6.97
2017-06-22T01:17:03.254Z,7.50
2017-06-22T01:19:31.586Z,6.13
2017-06-22T01:21:59.878Z,6.37
2017-06-22T01:24:28.218Z,5.97
2017-06-22T01:26:56.509Z,6.33
2017-06-22T01:29:25.566Z,6.53
2017-06-22T01:31:54.656Z,7.07
2017-06-22T01:34:23.752Z,6.23
2017-06-22T01:36:52.044Z,9.63
2017-06-22T01:39:20.500Z,5.90
2017-06-22T01:41:49.595Z,5.27
2017-06-22T01:44:17.890Z,5.80
2017-06-22T01:46:46.949Z,7.13
2017-06-22T01:49:15.264Z,6.53
2017-06-22T01:51:44.317Z,5.87
2017-06-22T01:54:12.648Z,5.83
2017-06-22T01:56:40.938Z,5.63
2017-06-22T01:59:09.257Z,6.43
2017-06-22T02:01:37.551Z,6.80
2017-06-22T02:04:06.639Z,6.00
2017-06-22T02:06:34.929Z,7.97
2017-06-22T02:09:04.018Z,8.73
2017-06-22T02:11:33.068Z,6.73
2017-06-22T02:14:01.429Z,6.90
2017-06-22T02:16:29.726Z,8.00
2017-06-22T02:18:58.024Z,11.63
2017-06-22T02:21:26.355Z,14.87
2017-06-22T02:23:54.652Z,12.57
2017-06-22T02:26:22.975Z,8.77
2017-06-22T02:28:51.330Z,8.83
2017-06-22T02:31:19.696Z,8.80
2017-06-22T02:33:48.009Z,8.07
2017-06-22T02:36:16.326Z,7.00
2017-06-22T02:38:44.640Z,8.50
2017-06-22T02:41:12.942Z,7.23
2017-06-22T02:43:42.045Z,9.50
2017-06-22T02:46:11.151Z,6.87
2017-06-22T02:48:40.206Z,5.77
2017-06-22T02:51:08.497Z,6.70
2017-06-22T02:53:36.835Z,6.63
2017-06-22T02:56:05.141Z,6.40
2017-06-22T02:58:33.472Z,6.40
2017-06-22T03:01:01.781Z,6.33
2017-06-22T03:03:30.103Z,5.67
2017-06-22T03:05:59.209Z,6.87
2017-06-22T03:08:28.361Z,6.03
2017-06-22T03:10:56.682Z,8.73
2017-06-22T03:13:25.738Z,6.00
2017-06-22T03:15:54.053Z,5.20
2017-06-22T03:18:23.153Z,6.00
2017-06-22T03:20:52.233Z,6.50
2017-06-22T03:23:21.555Z,6.87
2017-06-22T03:25:49.881Z,7.00
2017-06-22T03:28:18.182Z,5.20
2017-06-22T03:30:46.540Z,6.63
2017-06-22T03:33:14.864Z,6.17
2017-06-22T03:35:43.157Z,6.97
2017-06-22T03:38:11.481Z,10.13
2017-06-22T03:40:39.768Z,6.47
2017-06-22T03:43:08.090Z,7.43
2017-06-22T03:45:36.381Z,9.27
2017-06-22T03:48:04.696Z,6.60
2017-06-22T03:50:32.993Z,8.60
2017-06-22T03:53:02.069Z,7.17
2017-06-22T03:55:30.365Z,5.90
2017-06-22T03:57:59.462Z,7.27
2017-06-22T04:00:28.517Z,9.60
2017-06-22T04:02:56.801Z,9.07
2017-06-22T04:05:25.220Z,6.60
2017-06-22T04:07:54.302Z,8.37
2017-06-22T04:10:22.641Z,12.27
2017-06-22T04:12:50.943Z,11.57
2017-06-22T04:15:19.236Z,7.37
2017-06-22T04:17:48.326Z,7.27
2017-06-22T04:20:16.650Z,7.50
2017-06-22T04:22:44.977Z,7.50
2017-06-22T04:25:13.268Z,9.10
2017-06-22T04:27:42.349Z,8.43
2017-06-22T04:30:10.652Z,10.80
2017-06-22T04:32:39.740Z,8.27
2017-06-22T04:35:08.832Z,7.33
2017-06-22T04:37:37.893Z,7.30
2017-06-22T04:40:06.265Z,9.73
2017-06-22T04:42:34.598Z,6.80
2017-06-22T04:45:02.928Z,8.97
2017-06-22T04:47:31.253Z,6.80
2017-06-22T04:50:00.312Z,6.43
2017-06-22T04:52:28.645Z,7.53
2017-06-22T04:54:56.944Z,8.33
2017-06-22T04:57:25.241Z,7.40
2017-06-22T04:59:53.584Z,9.33
2017-06-22T05:02:21.917Z,9.97
2017-06-22T05:04:50.982Z,8.00
2017-06-22T05:07:19.277Z,7.77
2017-06-22T05:09:47.609Z,7.83
2017-06-22T05:12:15.901Z,6.70
2017-06-22T05:14:44.217Z,8.73
2017-06-22T05:17:13.295Z,13.53
2017-06-22T05:19:41.616Z,9.93
2017-06-22T05:22:09.912Z,8.47
2017-06-22T05:24:38.260Z,8.63
2017-06-22T05:27:06.566Z,13.47
2017-06-22T05:29:34.973Z,8.40
2017-06-22T05:32:03.262Z,8.80
2017-06-22T05:34:31.574Z,9.13
2017-06-22T05:37:00.657Z,8.30
2017-06-22T05:39:29.716Z,9.50
2017-06-22T05:41:58.039Z,8.37
2017-06-22T05:44:27.101Z,9.07
2017-06-22T05:46:55.427Z,8.20
2017-06-22T05:49:23.713Z,8.97
2017-06-22T05:51:52.045Z,12.03
2017-06-22T05:54:20.342Z,9.80
2017-06-22T05:56:48.645Z,10.00
2017-06-22T05:59:16.968Z,7.80
2017-06-22T06:01:45.290Z,8.13
2017-06-22T06:04:13.581Z,8.17
2017-06-22T06:06:41.906Z,7.83
2017-06-22T06:09:10.200Z,7.50
2017-06-22T06:11:38.523Z,7.47
2017-06-22T06:14:06.819Z,6.83
2017-06-22T06:16:35.141Z,8.87
2017-06-22T06:19:03.441Z,8.53
2017-06-22T06:21:31.771Z,8.37
2017-06-22T06:24:00.073Z,9.20
2017-06-22T06:26:28.409Z,7.70
2017-06-22T06:28:57.465Z,8.43
2017-06-22T06:31:25.757Z,7.80
2017-06-22T06:33:54.089Z,8.13
2017-06-22T06:36:23.733Z,8.67
2017-06-22T06:38:53.417Z,8.43
2017-06-22T06:41:23.052Z,7.47
2017-06-22T06:43:52.743Z,7.53
2017-06-22T06:46:22.422Z,8.90
2017-06-22T06:48:54.138Z,8.40
2017-06-22T06:51:23.844Z,9.43
2017-06-22T06:53:52.909Z,7.63
2017-06-22T06:56:21.201Z,7.47
2017-06-22T06:58:50.298Z,7.73
2017-06-22T07:01:19.353Z,7.90
2017-06-22T07:03:47.669Z,7.30
2017-06-22T07:06:16.726Z,8.93
2017-06-22T07:08:45.053Z,8.13
2017-06-22T07:11:13.388Z,7.80
2017-06-22T07:13:41.680Z,7.50
2017-06-22T07:16:09.997Z,8.17
2017-06-22T07:18:38.290Z,9.23
2017-06-22T07:21:06.613Z,7.90
2017-06-22T07:23:34.905Z,7.53
2017-06-22T07:26:04.000Z,7.87
2017-06-22T07:28:33.065Z,12.07
2017-06-22T07:31:01.354Z,8.80
2017-06-22T07:33:29.673Z,7.87
2017-06-22T07:35:57.990Z,7.50
2017-06-22T07:38:27.082Z,8.97
2017-06-22T07:40:56.145Z,7.43
2017-06-22T07:43:24.522Z,8.77
2017-06-22T07:45:52.892Z,9.23
2017-06-22T07:48:21.186Z,6.90
2017-06-22T07:50:49.544Z,8.00
2017-06-22T07:53:17.869Z,7.60
2017-06-22T07:55:46.956Z,7.10
2017-06-22T07:58:16.050Z,9.23
2017-06-22T08:00:45.118Z,8.50
2017-06-22T08:03:13.413Z,7.60
2017-06-22T08:05:42.584Z,8.80
2017-06-22T08:08:10.881Z,8.30
2017-06-22T08:10:39.182Z,11.80
2017-06-22T08:13:08.272Z,8.47
2017-06-22T08:15:37.340Z,11.23
2017-06-22T08:18:05.701Z,8.37
2017-06-22T08:20:33.994Z,8.97
2017-06-22T08:23:02.286Z,8.50
2017-06-22T08:25:30.610Z,9.50
2017-06-22T08:27:58.905Z,9.40
2017-06-22T08:30:27.232Z,8.50
2017-06-22T08:32:56.289Z,9.87
2017-06-22T08:35:24.655Z,9.80
2017-06-22T08:37:52.946Z,9.60
2017-06-22T08:40:21.234Z,8.87
2017-06-22T08:42:49.557Z,8.53
2017-06-22T08:45:17.854Z,10.97
2017-06-22T08:47:46.179Z,8.70
2017-06-22T08:50:15.355Z,8.90
2017-06-22T08:52:43.686Z,8.90
2017-06-22T08:55:11.980Z,8.30
2017-06-22T08:57:40.274Z,9.37
2017-06-22T09:00:08.607Z,9.67
2017-06-22T09:02:37.667Z,9.50
2017-06-22T09:05:05.974Z,9.47
2017-06-22T09:07:35.061Z,9.07
2017-06-22T09:10:04.166Z,9.33
2017-06-22T09:12:33.225Z,10.30
2017-06-22T09:15:01.518Z,9.90
2017-06-22T09:17:29.838Z,9.80
2017-06-22T09:19:58.133Z,8.93
2017-06-22T09:22:26.449Z,11.13
2017-06-22T09:24:54.745Z,8.20
2017-06-22T09:27:23.850Z,8.60
2017-06-22T09:29:52.909Z,8.80
2017-06-22T09:32:21.202Z,9.63
2017-06-22T09:34:49.534Z,9.53
2017-06-22T09:37:17.827Z,9.80
2017-06-22T09:39:46.124Z,12.53
2017-06-22T09:42:14.455Z,10.20
2017-06-22T09:44:42.747Z,8.47
2017-06-22T09:47:11.082Z,8.77
2017-06-22T09:49:40.137Z,8.50
2017-06-22T09:52:08.420Z,8.90
2017-06-22T09:54:36.750Z,9.63
2017-06-22T09:57:05.042Z,8.83
2017-06-22T09:59:33.362Z,10.53
2017-06-22T10:02:01.663Z,10.73
2017-06-22T10:04:30.770Z,8.97
2017-06-22T10:06:59.062Z,9.37
2017-06-22T10:09:27.364Z,9.40
2017-06-22T10:11:55.690Z,9.83
2017-06-22T10:14:24.745Z,10.23
2017-06-22T10:16:53.065Z,9.67
2017-06-22T10:19:22.120Z,8.87
2017-06-22T10:21:50.450Z,10.20
2017-06-22T10:24:18.738Z,10.33
2017-06-22T10:26:47.054Z,10.90
2017-06-22T10:29:15.373Z,10.07
2017-06-22T10:31:43.713Z,10.63
2017-06-22T10:34:11.997Z,10.07
2017-06-22T10:36:40.294Z,10.63
2017-06-22T10:39:09.456Z,9.30
2017-06-22T10:41:37.752Z,9.20
2017-06-22T10:44:07.626Z,10.20
2017-06-22T10:46:35.914Z,9.60
2017-06-22T10:49:05.014Z,10.63
2017-06-22T10:51:34.077Z,9.53
2017-06-22T10:54:02.373Z,9.83
2017-06-22T10:56:30.691Z,9.50
2017-06-22T10:58:58.990Z,11.00
2017-06-22T11:01:27.390Z,10.57
2017-06-22T11:03:55.681Z,10.17
2017-06-22T11:06:24.015Z,10.87
2017-06-22T11:08:52.300Z,10.60
2017-06-22T11:11:20.605Z,11.10
2017-06-22T11:13:48.930Z,10.50
2017-06-22T11:16:17.224Z,10.80
2017-06-22T11:18:45.533Z,10.13
2017-06-22T11:21:13.857Z,10.20
2017-06-22T11:23:42.160Z,9.10
2017-06-22T11:26:10.487Z,11.53
2017-06-22T11:28:39.545Z,14.20
2017-06-22T11:31:07.838Z,10.50
2017-06-22T11:33:36.197Z,9.70
2017-06-22T11:36:04.494Z,10.50
2017-06-22T11:38:32.786Z,10.33
2017-06-22T11:41:01.878Z,10.70
2017-06-22T11:43:30.177Z,9.90
2017-06-22T11:45:58.506Z,9.27
2017-06-22T11:48:26.834Z,9.47
2017-06-22T11:50:55.182Z,9.87
2017-06-22T11:53:23.478Z,10.10
2017-06-22T11:55:52.530Z,9.73
2017-06-22T11:58:20.864Z,11.07
2017-06-22T12:00:49.161Z,10.63
2017-06-22T12:03:17.461Z,10.10
2017-06-22T12:05:45.778Z,11.10
2017-06-22T12:08:14.077Z,11.33
2017-06-22T12:10:42.401Z,10.70
2017-06-22T12:13:10.689Z,14.33
2017-06-22T12:15:39.049Z,10.13
2017-06-22T12:18:07.337Z,10.53
2017-06-22T12:20:35.678Z,9.90
2017-06-22T12:23:04.010Z,10.57
2017-06-22T12:25:32.310Z,11.40
2017-06-22T12:28:01.401Z,9.30
2017-06-22T12:30:30.455Z,9.57
2017-06-22T12:32:58.773Z,10.60
2017-06-22T12:35:27.097Z,9.73
2017-06-22T12:37:56.206Z,10.10
2017-06-22T12:40:24.538Z,8.50
2017-06-22T12:42:52.829Z,9.20
2017-06-22T12:45:21.157Z,8.60
2017-06-22T12:47:49.441Z,9.17
2017-06-22T12:50:17.733Z,8.60
2017-06-22T12:52:46.057Z,7.87
2017-06-22T12:55:14.358Z,8.43
2017-06-22T12:57:42.705Z,8.43
2017-06-22T13:00:10.993Z,8.30
2017-06-22T13:02:39.281Z,8.93
2017-06-22T13:05:07.605Z,8.67
2017-06-22T13:07:35.945Z,10.60
2017-06-22T13:10:04.265Z,9.30
2017-06-22T13:12:32.555Z,8.30
2017-06-22T13:15:00.868Z,8.83
2017-06-22T13:17:29.153Z,9.53
2017-06-22T13:19:57.470Z,9.30
2017-06-22T13:22:25.762Z,8.30
2017-06-22T13:24:54.080Z,8.40
2017-06-22T13:27:22.414Z,8.10
2017-06-22T13:29:50.701Z,8.30
2017-06-22T13:32:18.989Z,7.03
2017-06-22T13:34:47.304Z,8.40
2017-06-22T13:37:15.594Z,8.63
2017-06-22T13:39:43.915Z,8.13
2017-06-22T13:42:12.312Z,8.67
2017-06-22T13:44:40.640Z,9.30
2017-06-22T13:47:09.732Z,9.10
2017-06-22T13:49:38.787Z,7.90
2017-06-22T13:52:07.109Z,8.13
2017-06-22T13:54:36.163Z,8.40
2017-06-22T13:57:04.469Z,8.83
2017-06-22T13:59:32.829Z,9.30
2017-06-22T14:02:01.142Z,9.07
2017-06-22T14:04:29.456Z,8.67
2017-06-22T14:06:57.741Z,9.23
2017-06-22T14:09:26.057Z,8.90
2017-06-22T14:11:54.352Z,9.00
2017-06-22T14:14:22.674Z,12.83
2017-06-22T14:16:50.975Z,8.63
2017-06-22T14:19:19.297Z,8.20
2017-06-22T14:21:47.584Z,8.23
2017-06-22T14:24:15.869Z,7.80
2017-06-22T14:26:44.192Z,9.20
2017-06-22T14:29:13.510Z,8.53
2017-06-22T14:31:41.836Z,8.47
2017-06-22T14:34:10.120Z,8.80
2017-06-22T14:36:38.404Z,8.33
2017-06-22T14:39:06.735Z,8.80
2017-06-22T14:41:35.049Z,10.97
2017-06-22T14:44:03.333Z,7.10
2017-06-22T14:46:31.661Z,8.87
2017-06-22T14:48:59.998Z,11.43
2017-06-22T14:51:29.081Z,8.60
2017-06-22T14:53:57.421Z,9.83
2017-06-22T14:56:25.709Z,12.37
2017-06-22T14:58:54.005Z,7.17
2017-06-22T15:01:22.365Z,6.90
2017-06-22T15:03:50.655Z,6.10
2017-06-22T15:06:18.950Z,6.03
2017-06-22T15:08:47.274Z,6.60
2017-06-22T15:11:15.559Z,6.53
2017-06-22T15:13:43.893Z,6.47
2017-06-22T15:16:12.962Z,6.30
2017-06-22T15:18:41.270Z,6.17
2017-06-22T15:21:09.594Z,5.60
2017-06-22T15:23:37.883Z,5.77
2017-06-22T15:26:06.174Z,6.27
2017-06-22T15:28:34.485Z,6.23
2017-06-22T15:31:02.778Z,6.33
2017-06-22T15:33:31.959Z,7.13
2017-06-22T15:36:00.263Z,8.87
2017-06-22T15:38:29.326Z,6.60
2017-06-22T15:40:57.645Z,6.37
2017-06-22T15:43:25.966Z,5.87
2017-06-22T15:45:54.257Z,5.60
2017-06-22T15:48:22.586Z,6.90
2017-06-22T15:50:50.870Z,6.07
2017-06-22T15:53:19.191Z,6.60
2017-06-22T15:55:47.513Z,8.63
2017-06-22T15:58:15.798Z,6.60
2017-06-22T16:00:45.164Z,8.23
2017-06-22T16:03:13.457Z,7.00
2017-06-22T16:05:41.745Z,8.13
2017-06-22T16:08:10.837Z,8.23
2017-06-22T16:10:39.116Z,9.83
2017-06-22T16:13:07.429Z,8.53
2017-06-22T16:15:35.757Z,7.83
2017-06-22T16:18:04.042Z,7.67
2017-06-22T16:20:32.366Z,8.60
2017-06-22T16:23:00.659Z,9.10
2017-06-22T16:25:28.952Z,9.90
2017-06-22T16:27:57.268Z,7.43
2017-06-22T16:30:26.327Z,7.03
2017-06-22T16:32:54.671Z,7.77
2017-06-22T16:35:22.964Z,24.87
2017-06-22T16:37:51.267Z,6.80
2017-06-22T16:40:19.578Z,8.00
2017-06-22T16:42:47.908Z,9.10
2017-06-22T16:45:16.249Z,9.03
2017-06-22T16:47:44.581Z,15.27
2017-06-22T16:50:12.873Z,8.00
2017-06-22T16:52:41.170Z,7.37
2017-06-22T16:55:09.489Z,8.80
2017-06-22T16:57:37.782Z,10.03
2017-06-22T17:00:06.114Z,9.27
2017-06-22T17:02:34.405Z,11.53
2017-06-22T17:05:03.105Z,35.27
2017-06-22T17:07:31.458Z,21.57
2017-06-22T17:09:59.748Z,22.53
2017-06-22T17:12:28.039Z,22.77
2017-06-22T17:14:56.364Z,27.77
2017-06-22T17:17:25.422Z,33.13
2017-06-22T17:19:53.737Z,38.60
2017-06-22T17:22:22.899Z,47.60
2017-06-22T17:24:51.233Z,33.60
2017-06-22T17:27:19.529Z,37.83
2017-06-22T17:29:47.825Z,43.70
2017-06-22T17:32:16.914Z,34.50
2017-06-22T17:34:45.980Z,38.50
2017-06-22T17:37:14.314Z,35.63
2017-06-22T17:39:42.617Z,43.77
2017-06-22T17:42:10.910Z,45.30
2017-06-22T17:44:39.272Z,39.03
2017-06-22T17:47:07.561Z,33.00
2017-06-22T17:49:35.926Z,29.80
2017-06-22T17:52:04.249Z,23.93
2017-06-22T17:54:32.607Z,23.90
2017-06-22T17:57:00.989Z,22.60
2017-06-22T17:59:29.326Z,20.00
2017-06-22T18:01:57.621Z,32.30
2017-06-22T18:04:25.955Z,26.00
2017-06-22T18:06:55.014Z,21.63
2017-06-22T18:09:23.322Z,20.23
2017-06-22T18:11:52.419Z,27.73
2017-06-22T18:14:21.480Z,25.90
2017-06-22T18:16:49.808Z,18.97
2017-06-22T18:19:18.140Z,20.10
2017-06-22T18:21:46.479Z,18.60
2017-06-22T18:24:14.777Z,15.93
2017-06-22T18:26:43.079Z,18.40
2017-06-22T18:29:11.408Z,15.43
2017-06-22T18:31:40.467Z,14.23
2017-06-22T18:34:08.794Z,12.23
2017-06-22T18:36:37.093Z,15.00
2017-06-22T18:39:05.429Z,14.90
2017-06-22T18:41:34.489Z,15.90
2017-06-22T18:44:02.838Z,13.70
2017-06-22T18:46:31.167Z,11.97
2017-06-22T18:48:59.461Z,11.47
2017-06-22T18:51:28.552Z,11.73
2017-06-22T18:53:57.621Z,12.33
2017-06-22T18:56:25.957Z,10.47
2017-06-22T18:58:54.257Z,10.40
2017-06-22T19:01:22.589Z,12.20
2017-06-22T19:03:50.897Z,12.13
2017-06-22T19:06:19.242Z,13.50
2017-06-22T19:08:47.540Z,10.50
2017-06-22T19:11:15.841Z,11.80
2017-06-22T19:13:44.171Z,12.27
2017-06-22T19:16:12.475Z,11.17
2017-06-22T19:18:40.813Z,10.10
2017-06-22T19:21:09.892Z,10.13
2017-06-22T19:23:38.185Z,12.07
2017-06-22T19:26:06.525Z,9.87
2017-06-22T19:28:34.824Z,11.17
2017-06-22T19:31:03.916Z,18.17
2017-06-22T19:33:32.350Z,10.80
2017-06-22T19:36:00.673Z,10.83
2017-06-22T19:38:28.973Z,9.63
2017-06-22T19:40:58.066Z,12.17
2017-06-22T19:43:27.129Z,11.30
2017-06-22T19:45:55.469Z,13.40
2017-06-22T19:48:23.764Z,12.80
2017-06-22T19:50:52.157Z,11.73
2017-06-22T19:53:20.489Z,11.53
2017-06-22T19:55:48.783Z,10.93
2017-06-22T19:58:17.118Z,10.77
2017-06-22T20:00:46.181Z,10.87
2017-06-22T20:03:14.500Z,10.57
2017-06-22T20:05:43.584Z,12.23
2017-06-22T20:08:12.680Z,12.23
2017-06-22T20:10:41.746Z,12.40
2017-06-22T20:13:10.053Z,11.70
2017-06-22T20:15:39.164Z,10.73
2017-06-22T20:18:08.229Z,14.03
2017-06-22T20:20:36.517Z,10.00
2017-06-22T20:23:04.837Z,10.57
2017-06-22T20:25:33.136Z,13.63
2017-06-22T20:28:01.465Z,11.07
2017-06-22T20:30:30.535Z,12.53
2017-06-22T20:32:58.866Z,10.77
2017-06-22T20:35:27.160Z,10.63
2017-06-22T20:37:55.522Z,11.47
2017-06-22T20:40:23.825Z,12.87
2017-06-22T20:42:52.121Z,10.70
2017-06-22T20:45:20.441Z,10.57
2017-06-22T20:47:48.741Z,11.43
2017-06-22T20:50:17.072Z,12.50
2017-06-22T20:52:46.150Z,12.00
2017-06-22T20:55:14.470Z,10.00
2017-06-22T20:57:42.786Z,10.30
2017-06-22T21:00:11.088Z,13.30
2017-06-22T21:02:39.419Z,12.57
2017-06-22T21:05:07.717Z,10.90
2017-06-22T21:07:36.190Z,14.57
2017-06-22T21:10:04.482Z,12.80
2017-06-22T21:12:33.768Z,11.73
2017-06-22T21:15:02.093Z,11.20
2017-06-22T21:17:30.432Z,11.33
2017-06-22T21:19:58.776Z,10.80
2017-06-22T21:22:27.069Z,9.00
2017-06-22T21:24:55.409Z,11.93
2017-06-22T21:27:24.467Z,9.80
2017-06-22T21:29:52.760Z,9.13
2017-06-22T21:32:21.087Z,8.10
2017-06-22T21:34:49.454Z,9.83
2017-06-22T21:37:17.754Z,11.47
2017-06-22T21:39:46.047Z,10.00
2017-06-22T21:42:14.381Z,10.40
2017-06-22T21:44:42.708Z,13.53
2017-06-22T21:47:11.048Z,12.67
2017-06-22T21:49:39.353Z,13.00
2017-06-22T21:52:07.664Z,10.90
2017-06-22T21:54:35.987Z,12.33
2017-06-22T21:57:04.293Z,11.17
2017-06-22T21:59:32.678Z,10.20
2017-06-22T22:02:01.149Z,10.77
2017-06-22T22:04:29.496Z,11.97
2017-06-22T22:06:57.793Z,14.73
2017-06-22T22:09:26.083Z,9.93
2017-06-22T22:11:54.405Z,14.97
2017-06-22T22:14:23.476Z,11.47
2017-06-22T22:16:51.809Z,11.83
2017-06-22T22:19:20.100Z,13.10
2017-06-22T22:21:48.433Z,14.67
2017-06-22T22:24:17.504Z,12.00
2017-06-22T22:26:45.833Z,10.50
2017-06-22T22:29:14.758Z,11.70
2017-06-22T22:31:43.096Z,12.47
2017-06-22T22:34:11.385Z,10.77
2017-06-22T22:36:39.719Z,15.63
2017-06-22T22:39:08.819Z,12.73
2017-06-22T22:41:37.909Z,16.43
2017-06-22T22:44:07.006Z,12.83
2017-06-22T22:46:36.084Z,12.37
2017-06-22T22:49:04.434Z,12.10
2017-06-22T22:51:32.729Z,9.97
2017-06-22T22:54:01.068Z,11.20
2017-06-22T22:56:29.365Z,11.20
2017-06-22T22:58:57.654Z,10.83
2017-06-22T23:01:26.040Z,15.00
2017-06-22T23:03:54.436Z,12.37
2017-06-22T23:06:22.766Z,11.07
2017-06-22T23:08:51.061Z,10.50
2017-06-22T23:11:19.374Z,12.77
2017-06-22T23:13:47.704Z,11.33
2017-06-22T23:16:15.996Z,11.63
2017-06-22T23:18:45.158Z,9.97
2017-06-22T23:21:13.440Z,9.80
2017-06-22T23:23:41.757Z,16.63
2017-06-22T23:26:10.076Z,10.67
2017-06-22T23:28:39.164Z,11.13
2017-06-22T23:31:08.229Z,12.13
2017-06-22T23:33:36.733Z,13.37
2017-06-22T23:36:05.024Z,11.57
2017-06-22T23:38:34.080Z,12.57
2017-06-22T23:41:02.405Z,10.30
2017-06-22T23:43:30.711Z,11.60
2017-06-22T23:45:59.051Z,12.93
2017-06-22T23:48:28.107Z,12.67
2017-06-22T23:50:56.421Z,10.67
2017-06-22T23:53:25.480Z,9.67
2017-06-22T23:55:53.813Z,11.20
2017-06-22T23:58:22.108Z,13.43
